createdAt,value
2022-08-17T00:01:52.823Z,19.91
2022-08-17T00:06:08.892Z,20.03
2022-08-17T00:10:11.232Z,20.04
2022-08-17T00:14:16.891Z,20.04
2022-08-17T00:19:06.203Z,20.14
2022-08-17T00:22:42.613Z,20.35
2022-08-17T00:26:45.809Z,20.49
2022-08-17T00:30:52.946Z,20.37
2022-08-17T00:34:56.412Z,20.26
2022-08-17T00:38:58.614Z,20.25
2022-08-17T00:43:13.785Z,20.24
2022-08-17T00:47:15.907Z,20.18
2022-08-17T00:51:33.637Z,20.13
2022-08-17T00:55:35.959Z,20.06
2022-08-17T00:59:42.947Z,20.03
2022-08-17T01:03:45.238Z,20.02
2022-08-17T01:07:51.100Z,20.02
2022-08-17T01:11:53.210Z,20.05
2022-08-17T01:16:01.896Z,20.09
2022-08-17T01:20:04.887Z,20.15
2022-08-17T01:24:07.892Z,20.13
2022-08-17T01:28:10.197Z,20.09
2022-08-17T01:32:33.051Z,20.20
2022-08-17T01:36:37.494Z,20.19
2022-08-17T01:40:47.194Z,19.98
2022-08-17T01:45:11.714Z,20.18
2022-08-17T01:49:13.918Z,20.05
2022-08-17T01:53:20.959Z,20.15
2022-08-17T01:57:23.110Z,20.03
2022-08-17T02:01:29.069Z,20.06
2022-08-17T02:05:31.971Z,20.08
2022-08-17T02:09:34.125Z,19.96
2022-08-17T02:13:38.070Z,19.89
2022-08-17T02:17:43.297Z,19.83
2022-08-17T02:21:47.847Z,19.99
2022-08-17T02:25:50.319Z,20.13
2022-08-17T02:29:52.586Z,20.27
2022-08-17T02:33:56.571Z,20.32
2022-08-17T02:38:05.707Z,20.44
2022-08-17T02:42:07.835Z,20.35
2022-08-17T02:46:10.161Z,20.20
2022-08-17T02:50:16.405Z,19.99
2022-08-17T02:54:40.717Z,20.00
2022-08-17T02:58:41.063Z,19.99
2022-08-17T03:02:45.939Z,19.71
2022-08-17T03:06:48.270Z,19.84
2022-08-17T03:10:50.830Z,19.87
2022-08-17T03:14:53.410Z,20.03
2022-08-17T03:18:55.733Z,19.97
2022-08-17T03:23:01.986Z,19.85
2022-08-17T03:27:05.454Z,19.82
2022-08-17T03:31:08.009Z,19.77
2022-08-17T03:35:12.674Z,19.75
2022-08-17T03:39:14.995Z,19.61
2022-08-17T03:43:18.806Z,19.42
2022-08-17T03:47:40.352Z,19.34
2022-08-17T03:52:22.530Z,19.50
2022-08-17T03:56:42.938Z,19.73
2022-08-17T04:00:46.350Z,19.71
2022-08-17T04:04:51.398Z,19.59
2022-08-17T04:08:53.928Z,19.58
2022-08-17T04:12:58.315Z,19.62
2022-08-17T04:17:00.495Z,19.64
2022-08-17T04:21:02.542Z,19.83
2022-08-17T04:25:17.160Z,19.58
2022-08-17T04:29:20.060Z,19.87
2022-08-17T04:33:25.169Z,20.00
2022-08-17T04:37:27.220Z,20.14
2022-08-17T04:41:47.974Z,20.32
2022-08-17T04:46:12.542Z,20.37
2022-08-17T04:50:15.126Z,20.45
2022-08-17T04:54:20.652Z,20.58
2022-08-17T04:58:23.002Z,20.69
2022-08-17T05:02:25.005Z,20.81
2022-08-17T05:06:28.888Z,20.92
2022-08-17T05:10:37.233Z,21.06
2022-08-17T05:14:48.393Z,21.27
2022-08-17T05:18:51.085Z,21.34
2022-08-17T05:22:56.145Z,21.39
2022-08-17T05:27:02.584Z,21.33
2022-08-17T05:31:08.823Z,21.29
2022-08-17T05:35:11.074Z,21.38
2022-08-17T05:39:17.037Z,21.42
2022-08-17T05:43:25.785Z,21.57
2022-08-17T05:47:28.730Z,21.75
2022-08-17T05:51:30.719Z,21.85
2022-08-17T05:55:48.499Z,21.92
2022-08-17T06:00:07.947Z,21.92
2022-08-17T06:04:53.696Z,22.11
2022-08-17T06:09:26.627Z,22.29
2022-08-17T06:13:50.475Z,22.32
2022-08-17T06:17:58.166Z,22.56
2022-08-17T06:22:02.906Z,22.82
2022-08-17T06:26:14.466Z,22.69
2022-08-17T06:30:25.626Z,22.95
2022-08-17T06:34:28.466Z,22.88
2022-08-17T06:38:57.593Z,23.01
2022-08-17T06:43:07.207Z,22.84
2022-08-17T06:47:28.121Z,22.95
2022-08-17T06:51:46.485Z,22.93
2022-08-17T06:55:59.066Z,23.09
2022-08-17T07:00:12.821Z,23.28
2022-08-17T07:04:23.325Z,23.08
2022-08-17T07:08:53.168Z,23.22
2022-08-17T07:13:03.424Z,23.25
2022-08-17T07:17:13.552Z,23.41
2022-08-17T07:21:40.910Z,23.52
2022-08-17T07:25:43.112Z,23.96
2022-08-17T07:29:48.163Z,24.06
2022-08-17T07:34:14.774Z,24.38
2022-08-17T07:38:26.832Z,24.33
2022-08-17T07:42:30.590Z,24.87
2022-08-17T07:47:05.441Z,24.69
2022-08-17T07:51:20.649Z,25.04
2022-08-17T07:55:35.094Z,25.05
2022-08-17T07:59:43.769Z,25.19
2022-08-17T08:03:46.475Z,25.35
2022-08-17T08:07:58.732Z,25.62
2022-08-17T08:12:33.456Z,25.37
2022-08-17T08:16:36.977Z,25.06
2022-08-17T08:20:54.554Z,24.99
2022-08-17T08:25:03.665Z,24.78
2022-08-17T08:29:39.866Z,25.06
2022-08-17T08:33:56.329Z,24.85
2022-08-17T08:38:20.120Z,24.72
2022-08-17T08:42:37.736Z,25.02
2022-08-17T08:46:46.003Z,25.18
2022-08-17T08:50:54.596Z,25.16
2022-08-17T08:55:07.746Z,24.79
2022-08-17T08:59:57.707Z,24.91
2022-08-17T09:04:19.992Z,24.63
2022-08-17T09:08:25.547Z,24.89
2022-08-17T09:12:47.776Z,25.61
2022-08-17T09:17:04.639Z,26.15
2022-08-17T09:21:33.813Z,26.49
2022-08-17T09:25:49.961Z,26.91
2022-08-17T09:29:59.046Z,27.04
2022-08-17T09:34:06.283Z,26.95
2022-08-17T09:38:32.398Z,26.60
2022-08-17T09:43:16.262Z,26.96
2022-08-17T09:47:42.231Z,27.18
2022-08-17T09:52:11.153Z,27.27
2022-08-17T09:56:45.973Z,27.16
2022-08-17T10:01:08.183Z,27.18
2022-08-17T10:05:28.895Z,26.80
2022-08-17T10:09:58.193Z,26.70
2022-08-17T10:14:36.703Z,26.37
2022-08-17T10:18:46.081Z,26.59
2022-08-17T10:23:29.493Z,26.50
2022-08-17T10:27:54.817Z,26.50
2022-08-17T10:32:04.730Z,26.57
2022-08-17T10:36:29.290Z,26.69
2022-08-17T10:40:51.660Z,26.46
2022-08-17T10:45:15.547Z,26.50
2022-08-17T10:49:17.818Z,26.48
2022-08-17T10:53:31.697Z,26.52
2022-08-17T10:57:43.803Z,27.12
2022-08-17T11:01:58.370Z,27.55
2022-08-17T11:06:09.887Z,27.62
2022-08-17T11:10:30.815Z,27.45
2022-08-17T11:15:00.988Z,28.07
2022-08-17T11:19:51.447Z,28.47
2022-08-17T11:23:59.515Z,28.56
2022-08-17T11:28:09.408Z,28.52
2022-08-17T11:32:27.978Z,28.04
2022-08-17T11:36:52.082Z,28.49
2022-08-17T11:41:11.874Z,28.63
2022-08-17T11:45:36.009Z,28.59
2022-08-17T11:50:07.250Z,28.88
2022-08-17T11:54:33.878Z,29.07
2022-08-17T11:58:45.424Z,28.48
2022-08-17T12:02:48.891Z,28.16
2022-08-17T12:07:20.825Z,28.36
2022-08-17T12:12:10.951Z,28.02
2022-08-17T12:15:56.617Z,27.66
2022-08-17T12:20:15.669Z,27.60
2022-08-17T12:24:37.358Z,27.72
2022-08-17T12:28:45.534Z,27.78
2022-08-17T12:32:48.597Z,27.61
2022-08-17T12:36:52.024Z,27.69
2022-08-17T12:40:57.990Z,27.46
2022-08-17T12:45:01.340Z,27.34
2022-08-17T12:49:26.479Z,27.03
2022-08-17T12:53:32.459Z,27.00
2022-08-17T12:57:52.052Z,27.60
2022-08-17T13:01:54.521Z,28.05
2022-08-17T13:06:03.674Z,28.32
2022-08-17T13:10:06.050Z,28.63
2022-08-17T13:14:10.103Z,28.78
2022-08-17T13:18:41.015Z,29.36
2022-08-17T13:22:44.686Z,29.65
2022-08-17T13:27:01.754Z,29.32
2022-08-17T13:31:28.213Z,29.20
2022-08-17T13:35:49.947Z,28.80
2022-08-17T13:40:21.487Z,28.24
2022-08-17T13:44:39.284Z,28.34
2022-08-17T13:48:41.602Z,28.39
2022-08-17T13:52:48.803Z,28.41
2022-08-17T13:57:02.121Z,28.63
2022-08-17T14:01:43.558Z,28.76
2022-08-17T14:05:47.333Z,28.87
2022-08-17T14:09:55.352Z,28.50
2022-08-17T14:13:58.876Z,28.77
2022-08-17T14:18:00.925Z,28.99
2022-08-17T14:22:07.132Z,28.88
2022-08-17T14:26:09.312Z,29.00
2022-08-17T14:30:11.935Z,29.14
2022-08-17T14:34:14.438Z,29.15
2022-08-17T14:38:17.467Z,29.63
2022-08-17T14:42:20.636Z,29.56
2022-08-17T14:46:22.931Z,29.28
2022-08-17T14:50:24.980Z,29.54
2022-08-17T14:54:34.125Z,29.65
2022-08-17T14:58:36.760Z,29.62
2022-08-17T15:02:53.897Z,29.77
2022-08-17T15:06:55.960Z,29.36
2022-08-17T15:10:58.171Z,29.05
2022-08-17T15:15:01.160Z,28.88
2022-08-17T15:19:07.839Z,29.08
2022-08-17T15:23:18.865Z,29.12
2022-08-17T15:27:25.741Z,29.12
2022-08-17T15:31:34.765Z,29.05
2022-08-17T15:35:37.560Z,28.69
2022-08-17T15:39:39.639Z,28.72
2022-08-17T15:43:44.706Z,28.42
2022-08-17T15:47:46.799Z,27.91
2022-08-17T15:51:49.041Z,27.49
2022-08-17T15:55:51.048Z,27.32
2022-08-17T15:59:59.298Z,27.03
2022-08-17T16:04:06.553Z,26.90
2022-08-17T16:08:11.406Z,26.65
2022-08-17T16:12:19.571Z,26.45
2022-08-17T16:16:24.223Z,26.31
2022-08-17T16:20:26.774Z,26.17
2022-08-17T16:24:29.223Z,26.23
2022-08-17T16:28:35.844Z,26.23
2022-08-17T16:32:39.188Z,26.16
2022-08-17T16:36:41.783Z,26.09
2022-08-17T16:40:58.225Z,26.06
2022-08-17T16:45:08.909Z,26.00
2022-08-17T16:49:35.658Z,25.96
2022-08-17T16:53:37.583Z,25.90
2022-08-17T16:57:47.301Z,25.80
2022-08-17T17:01:52.825Z,25.91
2022-08-17T17:06:18.860Z,25.68
2022-08-17T17:10:28.859Z,25.58
2022-08-17T17:14:43.214Z,25.46
2022-08-17T17:19:12.625Z,25.38
2022-08-17T17:23:35.297Z,25.24
2022-08-17T17:27:47.830Z,25.03
2022-08-17T17:32:21.118Z,24.82
2022-08-17T17:36:29.529Z,24.62
2022-08-17T17:40:42.918Z,24.51
2022-08-17T17:44:56.666Z,24.38
2022-08-17T17:49:00.229Z,24.15
2022-08-17T17:53:09.473Z,23.97
2022-08-17T17:57:29.878Z,23.83
2022-08-17T18:01:48.793Z,23.74
2022-08-17T18:06:28.892Z,23.70
2022-08-17T18:11:00.231Z,23.54
2022-08-17T18:15:25.694Z,23.44
2022-08-17T18:19:31.628Z,23.43
2022-08-17T18:23:34.590Z,23.33
2022-08-17T18:27:39.944Z,23.24
2022-08-17T18:31:42.370Z,23.09
2022-08-17T18:35:59.327Z,22.99
2022-08-17T18:40:19.898Z,22.82
2022-08-17T18:44:26.840Z,22.79
2022-08-17T18:48:58.981Z,22.36
2022-08-17T18:53:30.233Z,22.40
2022-08-17T18:57:48.499Z,22.43
2022-08-17T19:01:58.867Z,22.41
2022-08-17T19:06:36.891Z,22.28
2022-08-17T19:10:46.392Z,22.17
2022-08-17T19:14:52.780Z,22.13
2022-08-17T19:19:14.735Z,22.09
2022-08-17T19:23:32.342Z,22.01
2022-08-17T19:27:46.431Z,21.88
2022-08-17T19:31:55.447Z,21.85
2022-08-17T19:36:09.951Z,21.64
2022-08-17T19:40:53.285Z,21.55
2022-08-17T19:45:03.586Z,21.71
2022-08-17T19:49:16.051Z,21.61
2022-08-17T19:53:42.000Z,21.50
2022-08-17T19:57:58.342Z,21.39
2022-08-17T20:02:09.185Z,21.36
2022-08-17T20:06:13.861Z,21.32
2022-08-17T20:10:54.527Z,21.12
2022-08-17T20:15:18.367Z,21.00
2022-08-17T20:19:36.309Z,20.98
2022-08-17T20:23:50.332Z,20.86
2022-08-17T20:28:27.983Z,20.82
2022-08-17T20:32:45.206Z,20.90
2022-08-17T20:37:09.019Z,20.87
2022-08-17T20:41:16.295Z,20.90
2022-08-17T20:45:21.413Z,20.80
2022-08-17T20:49:39.883Z,20.89
2022-08-17T20:54:06.634Z,20.82
2022-08-17T20:58:15.118Z,20.90
2022-08-17T21:02:22.202Z,20.80
2022-08-17T21:06:25.484Z,20.58
2022-08-17T21:10:27.654Z,20.64
2022-08-17T21:14:56.284Z,20.59
2022-08-17T21:19:22.664Z,20.69
2022-08-17T21:23:58.506Z,20.80
2022-08-17T21:29:00.218Z,20.93
2022-08-17T21:33:18.951Z,20.85
2022-08-17T21:37:24.819Z,20.61
2022-08-17T21:41:32.122Z,20.78
2022-08-17T21:45:42.648Z,20.84
2022-08-17T21:49:45.049Z,20.92
2022-08-17T21:53:58.157Z,20.85
2022-08-17T21:58:14.873Z,20.91
2022-08-17T22:02:24.925Z,20.91
2022-08-17T22:06:37.200Z,21.00
2022-08-17T22:10:43.795Z,21.00
2022-08-17T22:15:06.267Z,20.85
2022-08-17T22:19:09.190Z,20.73
2022-08-17T22:23:32.837Z,20.76
2022-08-17T22:27:55.969Z,20.86
2022-08-17T22:31:58.389Z,20.83
2022-08-17T22:36:22.858Z,20.59
2022-08-17T22:40:30.637Z,20.53
2022-08-17T22:44:44.971Z,20.47
2022-08-17T22:48:52.614Z,20.37
2022-08-17T22:53:21.212Z,20.34
2022-08-17T22:57:42.765Z,20.19
2022-08-17T23:02:06.396Z,20.02
2022-08-17T23:06:11.319Z,20.14
2022-08-17T23:10:14.808Z,20.07
2022-08-17T23:14:20.122Z,19.86
2022-08-17T23:18:23.623Z,19.88
2022-08-17T23:22:26.029Z,19.76
2022-08-17T23:26:30.730Z,19.53
2022-08-17T23:30:36.950Z,19.73
2022-08-17T23:34:41.108Z,19.59
2022-08-17T23:38:44.875Z,19.58
2022-08-17T23:42:47.362Z,19.58
2022-08-17T23:46:51.412Z,19.49
2022-08-17T23:50:57.490Z,19.44
2022-08-17T23:55:07.309Z,19.19
2022-08-17T23:59:09.588Z,19.40
